»·PEaware :: DAL213 KSBA-KSFO

DAL213 :: KSBA-KSFO

FLIGHT INFORMATION

Flight Status: Arrived
Operator:
Delta Air Lines
More flights by this operator :: More flights under this callsign
Pilot: Nico L. (9332)
Aircraft: BOEING 737-800
(B738)
More flights by this aircraft type
Origin: KSBA Santa Barbara Mun
United States
Destination: KSFO San Francisco Intl
United States
More flights between these airports :: More routes between these airports
Route: GAUCH1 MQO SERFR SERFR3
File this flight plan on PilotEdge
Remarks: Live Streaming on Twitch "DAL213" and YT
Altitude:
(Current/Filed)
26,000ft
Speed:
(Current/Filed)
400kts
Departed: 15-May-19 10:49 AM
Arrived: 15-May-19 11:32 AM
Distance/Time
Traveled:
228nm/0:43
Distance/Time
To Go:
Arrived

Flight Plot

Page will automatically refresh every two minutes.


Map Options




Map Legend


Flown Route
Filed Route
Departure Airport
Arrival Airport
Navaid (VOR, NDB)
Fix

Horizontal Profiles

Position Reports

Time Latitude Longitude Heading Altitude Ground
Speed
15-May-19 10:26 34.425116 -119.837238 114 19ft 0kts
15-May-19 10:27 34.425116 -119.837238 114 19ft 0kts
15-May-19 10:28 34.425116 -119.837238 114 19ft 0kts
15-May-19 10:28 34.425116 -119.837238 114 19ft 0kts
15-May-19 10:30 34.425116 -119.837238 114 19ft 0kts
15-May-19 10:31 34.425116 -119.837238 114 19ft 0kts
15-May-19 10:31 34.425116 -119.837238 114 19ft 0kts
15-May-19 10:33 34.425116 -119.837238 114 19ft 0kts
15-May-19 10:33 34.425116 -119.837238 114 19ft 0kts
15-May-19 10:34 34.425116 -119.837238 114 19ft 0kts
15-May-19 10:35 34.425116 -119.837238 114 19ft 0kts
15-May-19 10:36 34.425116 -119.837238 114 19ft 0kts
15-May-19 10:37 34.425116 -119.837238 114 19ft 0kts
15-May-19 10:38 34.425116 -119.837238 114 19ft 0kts
15-May-19 10:39 34.425116 -119.837238 114 19ft 0kts
15-May-19 10:40 34.425179 -119.837867 72 19ft 2kts
15-May-19 10:41 34.425128 -119.838014 61 19ft 0kts
15-May-19 10:42 34.425128 -119.838013 61 19ft 0kts
15-May-19 10:43 34.425128 -119.838013 61 19ft 0kts
15-May-19 10:44 34.425129 -119.838010 61 19ft 0kts
15-May-19 10:45 34.426692 -119.839355 267 19ft 17kts
15-May-19 10:46 34.426525 -119.847407 268 19ft 22kts
15-May-19 10:47 34.426388 -119.853827 278 19ft 17kts
15-May-19 10:48 34.427615 -119.849783 89 19ft 92kts
15-May-19 10:49 34.413111 -119.800988 154 2080ft 213kts
15-May-19 10:50 34.358072 -119.770046 156 5567ft 221kts
15-May-19 10:51 34.305083 -119.797579 253 8103ft 267kts
15-May-19 10:52 34.291337 -119.890376 256 10799ft 302kts
15-May-19 10:53 34.283384 -119.999229 265 13223ft 338kts
15-May-19 10:54 34.342053 -120.089244 322 16255ft 387kts
15-May-19 10:55 34.437281 -120.158379 322 18949ft 407kts
15-May-19 10:56 34.535679 -120.230229 321 21582ft 420kts
15-May-19 10:57 34.637161 -120.304534 320 23810ft 432kts
15-May-19 10:58 34.741680 -120.381284 320 25757ft 443kts
15-May-19 10:59 34.850441 -120.461402 321 26042ft 469kts
15-May-19 11:00 34.962421 -120.544128 321 26038ft 471kts
15-May-19 11:01 35.074826 -120.627464 321 26040ft 472kts
15-May-19 11:02 35.186894 -120.710810 321 26038ft 472kts
15-May-19 11:03 35.299314 -120.794052 322 26040ft 473kts
15-May-19 11:04 35.412550 -120.877268 322 26031ft 474kts
15-May-19 11:05 35.525424 -120.960472 322 26023ft 474kts
15-May-19 11:06 35.638448 -121.044094 322 26020ft 475kts
15-May-19 11:07 35.751828 -121.128243 322 26010ft 475kts
15-May-19 11:08 35.864904 -121.212448 322 26010ft 476kts
15-May-19 11:09 35.977992 -121.296971 322 26015ft 476kts
15-May-19 11:10 36.091696 -121.382672 322 26006ft 478kts
15-May-19 11:11 36.203933 -121.470427 322 25998ft 478kts
15-May-19 11:12 36.314066 -121.556609 322 24016ft 456kts
15-May-19 11:13 36.418857 -121.638905 320 21799ft 433kts
15-May-19 11:14 36.518208 -121.717214 320 19689ft 414kts
15-May-19 11:15 36.613543 -121.792613 320 17694ft 398kts
15-May-19 11:16 36.705383 -121.865488 320 15712ft 383kts
15-May-19 11:17 36.804360 -121.910981 342 13544ft 385kts
15-May-19 11:18 36.905041 -121.939705 343 11137ft 356kts
15-May-19 11:19 36.997543 -121.970458 338 9758ft 317kts
15-May-19 11:20 37.077017 -122.001826 338 9256ft 292kts
15-May-19 11:21 37.154838 -122.032278 338 8772ft 292kts
15-May-19 11:22 37.232478 -122.062694 339 8292ft 290kts
15-May-19 11:23 37.309902 -122.093118 339 7325ft 295kts
15-May-19 11:24 37.387308 -122.123629 339 5754ft 289kts
15-May-19 11:25 37.463195 -122.153750 340 4114ft 278kts
15-May-19 11:26 37.534596 -122.181049 322 3028ft 257kts
15-May-19 11:27 37.569599 -122.247864 294 1974ft 196kts
15-May-19 11:28 37.573306 -122.307781 267 1183ft 151kts
15-May-19 11:29 37.579161 -122.358109 282 862ft 144kts
15-May-19 11:30 37.604167 -122.383130 37 142ft 143kts
15-May-19 11:31 37.621514 -122.372429 301 22ft 0kts
15-May-19 11:32 37.622385 -122.375401 228 22ft 0kts
15-May-19 11:33 37.622378 -122.375411 228 22ft 0kts
15-May-19 11:34 37.621704 -122.376387 229 22ft 17kts
15-May-19 11:35 37.618275 -122.380810 238 22ft 4kts
15-May-19 11:36 37.618270 -122.380820 238 22ft 0kts
15-May-19 11:37 37.618270 -122.380820 238 22ft 0kts
15-May-19 11:38 37.618270 -122.380820 238 22ft 0kts
15-May-19 11:39 37.618270 -122.380820 238 22ft 0kts
15-May-19 11:40 37.618270 -122.380820 238 22ft 0kts
15-May-19 11:41 37.618270 -122.380820 238 22ft 0kts
15-May-19 11:42 37.618270 -122.380820 238 22ft 0kts
15-May-19 11:43 37.618270 -122.380820 238 22ft 0kts
15-May-19 11:44 37.618270 -122.380820 238 22ft 0kts
15-May-19 11:45 37.618270 -122.380820 238 22ft 0kts

Navigation Log

Ident Type
Flight plan parsing failed, navigation log unavailable